Overview Statistics Trail Chart Weather Telemetry Raw packets
 

This is the latest recevied weather packets stored in our database for station/object K6GMW. If no packets are shown the sender has not sent any weather packets the latest 10 day(s).

<< 36 37 38 39 40 41 42 >>
Time Temp. Humidity Pressure Rain* Wind** Luminosity Snow
1788384017 35° C 49% 1014.2 hPa 0 mm - 611 W/m² -
1788383714 33.89° C 50% 1014.4 hPa 0 mm - 441 W/m² -
1788383408 34.44° C 49% 1014.5 hPa 0 mm - 195 W/m² -
1788383108 34.44° C 49% 1014.5 hPa 0 mm - 263 W/m² -
1788382807 34.44° C 48% 1014.9 hPa 0 mm - 189 W/m² -
1788382501 35° C 47% 1014.5 hPa 0 mm - 558 W/m² -
1788382197 35° C 48% 1014.5 hPa 0 mm - 640 W/m² -
1788381896 35° C 48% 1014.8 hPa 0 mm - 882 W/m² -
1788381592 35.56° C 46% 1014.7 hPa 0 mm - 172 W/m² -
1788381288 35.56° C 46% 1014.8 hPa 0 mm - 772 W/m² -
1788380986 35° C 47% 1014.7 hPa 0 mm - 832 W/m² -
1788380682 35° C 47% 1014.8 hPa 0 mm - 430 W/m² -
1788380379 35° C 47% 1015.1 hPa 0 mm - 588 W/m² -
1788380074 35° C 48% 1015 hPa 0 mm - 501 W/m² -
1788379774 35° C 48% 1014.9 hPa 0 mm - 303 W/m² -
1788379469 35.56° C 47% 1014.8 hPa 0 mm - 243 W/m² -
1788379165 35° C 51% 1015 hPa 0 mm - 941 W/m² -
1788378860 35° C 50% 1014.9 hPa 0 mm - 948 W/m² -
1788378554 35.56° C 48% 1015.2 hPa 0 mm - 217 W/m² -
1788378254 34.44° C 51% 1015.2 hPa 0 mm - 940 W/m² -
1788377949 34.44° C 50% 1015.4 hPa 0 mm - 954 W/m² -
1788377645 34.44° C 51% 1015.3 hPa 0 mm - 915 W/m² -
1788377343 34.44° C 50% 1015.2 hPa 0 mm - 1023 W/m² -
1788377043 35° C 48% 1015.4 hPa 0 mm - 456 W/m² -
1788376736 35.56° C 48% 1015.3 hPa 0 mm - 1115 W/m² -

* Rain latest hour (hover to see other rain measurements)
** Current wind speed in m/s (hover to see current wind gust speed)